Aegean Navigator — SWBI — position and weather

sailwx.info

Track history (hours):
 
Tides and Currents Weather Stations Pressure Air Temp Water Temp Dewpoint Dewpoint Depression Visibility Wind Speed Wind Dir Waves Ship Positions

Aegean Navigator

Last reported at 2015-May-28 12:08 UTC. Time now 2015-May-29 18:19 UTC.
Position N 40°52' E 028°24'.

Length 274 m; draft 16.3 m.

Type: Tanker. MMSI: 240634000.

Date/timePositionNaut miles runAvg speedWind from/ knotsBaromVisibWave heightAir tempDewpointWater temp
2015-May-28 12:08N 40°52' E 028°24'1610.1
2015-May-28 10:31N 40°54' E 028°45'9 9.2
2015-May-28 09:33N 40°57' E 028°56'13 9.5
2015-May-28 08:11N 41°09' E 029°03'29 2.5
2015-May-27 20:33N 41°32' E 029°28'1 0.5
2015-May-27 19:33N 41°32' E 029°28'2 2.2
2015-May-27 18:33N 41°30' E 029°27'1 0.6
2015-May-27 17:33N 41°31' E 029°27'0 0.5
2015-May-27 16:33N 41°31' E 029°27'1 0.5
2015-May-27 15:33N 41°32' E 029°26'0 0.5
2015-May-27 14:33N 41°32' E 029°26'0 0.4
2015-May-27 13:33N 41°32' E 029°26'3 1.0
2015-May-27 10:26N 41°35' E 029°28'4 4.2
2015-May-27 09:33N 41°38' E 029°31'1 0.5
2015-May-27 08:33N 41°39' E 029°31'7 0.5
2015-May-26 19:29N 41°45' E 029°26'2 0.5
2015-May-26 16:33N 41°46' E 029°25'1 0.6
2015-May-26 15:34N 41°47' E 029°25'1 1.0
2015-May-26 14:32N 41°47' E 029°24'10 2.8
2015-May-26 11:04N 41°38' E 029°19'0 0.5
2015-May-26 10:33N 41°39' E 029°19'1 0.5
2015-May-26 09:32N 41°39' E 029°19'1 0.6
2015-May-26 08:33N 41°40' E 029°19'1 0.6
2015-May-26 06:32N 41°41' E 029°19'243 9.2
2015-May-25 04:07N 43°18' E 034°20'711.8
2015-May-25 03:33N 43°21' E 034°28'1411.8
2015-May-25 02:23N 43°27' E 034°45'3911.9
2015-May-24 23:05N 43°45' E 035°34'9112.0
2015-May-24 15:30N 44°26' E 037°27'1111.7
2015-May-24 14:33N 44°32' E 037°40'10 9.6
2015-May-24 13:33N 44°35' E 037°53'0 0.0
2015-May-24 12:33N 44°35' E 037°53'0 0.0
2015-May-24 11:33N 44°35' E 037°53'0 0.0
2015-May-24 10:33N 44°35' E 037°53'0 0.0
2015-May-24 09:33N 44°35' E 037°53'0 0.1
2015-May-24 08:33N 44°35' E 037°53'0 0.0
2015-May-24 07:33N 44°35' E 037°53'0 0.1
2015-May-24 06:33N 44°35' E 037°53'0 0.0
2015-May-24 05:33N 44°35' E 037°53'0 0.0
2015-May-24 04:33N 44°35' E 037°53'0 0.0
2015-May-24 03:34N 44°35' E 037°53'0 0.1
2015-May-24 02:33N 44°35' E 037°53'4 3.7
2015-May-24 01:33N 44°39' E 037°51'3 3.3
2015-May-24 00:33N 44°42' E 037°50'0 0.0
2015-May-23 23:34N 44°42' E 037°50'0 0.0
2015-May-23 22:34N 44°42' E 037°50'0 0.0
2015-May-23 21:33N 44°42' E 037°50'0 0.0
2015-May-23 20:33N 44°42' E 037°50'0 0.0
2015-May-23 19:32N 44°42' E 037°50'0 0.0
2015-May-23 18:34N 44°42' E 037°50'0 0.0
2015-May-23 17:33N 44°42' E 037°50'0 0.0
2015-May-23 16:33N 44°42' E 037°50'0 0.0
2015-May-23 15:33N 44°42' E 037°50'0 0.0
2015-May-23 14:34N 44°42' E 037°50'0 0.0
2015-May-23 13:33N 44°42' E 037°50'0 0.0
2015-May-23 12:33N 44°42' E 037°50'0 0.0
2015-May-23 11:34N 44°42' E 037°50'0 0.0
2015-May-23 10:33N 44°42' E 037°50'0 0.0
2015-May-23 09:33N 44°42' E 037°50'0 0.0
2015-May-23 08:33N 44°42' E 037°50'0 0.0
2015-May-23 07:34N 44°42' E 037°50'0 0.0
2015-May-23 06:33N 44°42' E 037°50'0 0.0
2015-May-23 05:34N 44°42' E 037°50'0 0.0
2015-May-23 04:34N 44°42' E 037°50'0 0.0
2015-May-23 03:34N 44°42' E 037°50'0 0.0
2015-May-23 02:33N 44°42' E 037°50'0 0.0
2015-May-23 01:34N 44°42' E 037°50'0 0.0
2015-May-23 00:33N 44°42' E 037°50'0 0.0
2015-May-22 23:34N 44°42' E 037°50'0 0.0
2015-May-22 22:34N 44°42' E 037°50'0 0.0
2015-May-22 21:33N 44°42' E 037°50'0 0.0
2015-May-22 20:28N 44°42' E 037°50'0 0.0
2015-May-22 19:33N 44°42' E 037°50'0 0.0
2015-May-22 18:34N 44°42' E 037°50'0 0.0
2015-May-22 17:33N 44°42' E 037°50'0 0.0
2015-May-22 16:34N 44°42' E 037°50'0 0.0
2015-May-22 15:34N 44°42' E 037°50'9 2.7
2015-May-22 12:11N 44°33' E 037°49'710.6
2015-May-22 11:33N 44°28' E 037°44'8 8.0
2015-May-22 10:33N 44°25' E 037°33'1 0.5
2015-May-22 09:33N 44°24' E 037°34'9 9.4
2015-May-22 08:33N 44°17' E 037°25'8 7.6
2015-May-22 07:34N 44°11' E 037°19'2 2.0
2015-May-22 06:33N 44°12' E 037°21'2 2.2
2015-May-22 05:33N 44°14' E 037°23'2 1.8
2015-May-22 04:34N 44°15' E 037°26'1 1.1
2015-May-22 03:33N 44°15' E 037°27'1 0.7
2015-May-22 02:19N 44°16' E 037°28'2 0.8
2015-May-21 23:17N 44°18' E 037°29'1 0.7
2015-May-21 22:10N 44°18' E 037°30'1 0.8
2015-May-21 21:27N 44°19' E 037°31'1 0.8
2015-May-21 20:32N 44°19' E 037°32'1 0.8
2015-May-21 19:29N 44°20' E 037°32'1 0.9
2015-May-21 18:18N 44°21' E 037°33'1 1.1
2015-May-21 17:29N 44°21' E 037°34'1 1.1
2015-May-21 16:32N 44°22' E 037°35'1 1.0
2015-May-21 15:33N 44°23' E 037°35'1 1.0
2015-May-21 14:33N 44°24' E 037°36'1 0.9
2015-May-21 13:33N 44°25' E 037°36'1 0.9
2015-May-21 12:33N 44°26' E 037°37'1 1.2
2015-May-21 11:33N 44°27' E 037°38'10 9.8
2015-May-21 10:33N 44°17' E 037°40'1 1.0
2015-May-21 09:33N 44°17' E 037°39'1 0.7
2015-May-21 08:33N 44°17' E 037°38'1 0.6
2015-May-21 07:33N 44°17' E 037°37'1 0.5
2015-May-21 06:33N 44°17' E 037°37'1 0.5
2015-May-21 05:33N 44°18' E 037°36'0 0.5
2015-May-21 04:34N 44°18' E 037°36'1 0.5
2015-May-21 03:33N 44°19' E 037°36'1 1.1
2015-May-21 02:33N 44°20' E 037°35'2 1.6
2015-May-21 01:29N 44°21' E 037°35'1 1.5
2015-May-21 00:31N 44°23' E 037°36'1 0.8
2015-May-20 23:30N 44°23' E 037°36'1 0.6
2015-May-20 22:33N 44°24' E 037°37'1 0.5
2015-May-20 21:33N 44°24' E 037°37'1 0.6
2015-May-20 20:33N 44°25' E 037°37'1 0.6
2015-May-20 19:33N 44°25' E 037°38'1 0.6
2015-May-20 18:33N 44°26' E 037°38'1 0.7
2015-May-20 17:31N 44°27' E 037°39'1 0.6
2015-May-20 16:33N 44°27' E 037°39'1 0.6
2015-May-20 15:33N 44°28' E 037°39'0 0.5
2015-May-20 14:33N 44°28' E 037°39'5 4.8
2015-May-20 13:34N 44°29' E 037°45'2 2.3
2015-May-20 12:34N 44°30' E 037°48'4 4.3
2015-May-20 11:34N 44°31' E 037°42'1212.1
2015-May-20 10:33N 44°30' E 037°25'1 1.1
2015-May-20 09:34N 44°29' E 037°26'2 1.8
2015-May-20 08:33N 44°28' E 037°28'2 2.1
2015-May-20 07:33N 44°28' E 037°31'2 1.7
2015-May-20 06:33N 44°28' E 037°33'1 1.1
2015-May-20 05:34N 44°28' E 037°35'1 0.5
2015-May-20 04:33N 44°28' E 037°36'0 0.5
2015-May-20 03:34N 44°28' E 037°36'1 0.7
2015-May-20 02:33N 44°28' E 037°37'1 0.7
2015-May-20 01:33N 44°28' E 037°38'0 0.4
2015-May-20 00:33N 44°28' E 037°39'0 0.4
2015-May-19 23:33N 44°29' E 037°39'0 0.4
2015-May-19 22:33N 44°29' E 037°40'0 0.4
2015-May-19 21:34N 44°29' E 037°40'1 0.5
2015-May-19 20:33N 44°29' E 037°41'0 0.5
2015-May-19 19:33N 44°28' E 037°41'1 0.5
2015-May-19 18:33N 44°28' E 037°42'1 0.5
2015-May-19 17:34N 44°28' E 037°43'1 0.5
2015-May-19 16:33N 44°28' E 037°44'0 0.4
2015-May-19 15:33N 44°28' E 037°44'0 0.5
2015-May-19 14:34N 44°29' E 037°45'0 0.5
2015-May-19 13:33N 44°29' E 037°45'0 0.5
2015-May-19 12:33N 44°29' E 037°45'0 0.4
2015-May-19 11:33N 44°30' E 037°45'0 0.4
2015-May-19 10:34N 44°30' E 037°46'0 0.5
2015-May-19 09:33N 44°31' E 037°46'0 0.5
2015-May-19 08:33N 44°31' E 037°45'0 0.4
2015-May-19 07:33N 44°31' E 037°45'10 9.8
2015-May-19 06:34N 44°26' E 037°33'1110.8
2015-May-19 05:34N 44°21' E 037°20'1010.3
2015-May-19 04:33N 44°16' E 037°07'1010.4
2015-May-19 03:33N 44°11' E 036°55'1010.1
2015-May-19 02:32N 44°07' E 036°42'1010.1
2015-May-19 01:33N 44°03' E 036°29'1010.4
2015-May-19 00:33N 43°59' E 036°16'1110.7
2015-May-18 23:34N 43°55' E 036°02'1110.7
2015-May-18 22:33N 43°50' E 035°48'1110.7
2015-May-18 21:33N 43°46' E 035°35'1110.8
2015-May-18 20:33N 43°42' E 035°21'1110.9
2015-May-18 19:33N 43°37' E 035°07'1110.7
2015-May-18 18:33N 43°33' E 034°54'1110.6
2015-May-18 17:33N 43°29' E 034°40'1010.3
2015-May-18 16:33N 43°25' E 034°27'1010.2
2015-May-18 15:33N 43°21' E 034°14'1010.3
2015-May-18 14:33N 43°17' E 034°01'1010.5
2015-May-18 13:34N 43°12' E 033°48'1110.9
2015-May-18 12:31N 43°08' E 033°34'  
Track history (hours):
 
Tides and Currents Weather Stations Pressure Air Temp Water Temp Dewpoint Dewpoint Depression Visibility Wind Speed Wind Dir Waves Ship Positions

Aegean Navigator

Last reported at 2015-May-28 12:08 UTC. Time now 2015-May-29 18:19 UTC.
Position N 40°52' E 028°24'.

Length 274 m; draft 16.3 m.

Type: Tanker. MMSI: 240634000.

Date/timePositionNaut miles runAvg speedWind from/ knotsBaromVisibWave heightAir tempDewpointWater temp
2015-May-28 12:08N 40°52' E 028°24'1610.1
2015-May-28 10:31N 40°54' E 028°45'9 9.2
2015-May-28 09:33N 40°57' E 028°56'13 9.5
2015-May-28 08:11N 41°09' E 029°03'29 2.5
2015-May-27 20:33N 41°32' E 029°28'1 0.5
2015-May-27 19:33N 41°32' E 029°28'2 2.2
2015-May-27 18:33N 41°30' E 029°27'1 0.6
2015-May-27 17:33N 41°31' E 029°27'0 0.5
2015-May-27 16:33N 41°31' E 029°27'1 0.5
2015-May-27 15:33N 41°32' E 029°26'0 0.5
2015-May-27 14:33N 41°32' E 029°26'0 0.4
2015-May-27 13:33N 41°32' E 029°26'3 1.0
2015-May-27 10:26N 41°35' E 029°28'4 4.2
2015-May-27 09:33N 41°38' E 029°31'1 0.5
2015-May-27 08:33N 41°39' E 029°31'7 0.5
2015-May-26 19:29N 41°45' E 029°26'2 0.5
2015-May-26 16:33N 41°46' E 029°25'1 0.6
2015-May-26 15:34N 41°47' E 029°25'1 1.0
2015-May-26 14:32N 41°47' E 029°24'10 2.8
2015-May-26 11:04N 41°38' E 029°19'0 0.5
2015-May-26 10:33N 41°39' E 029°19'1 0.5
2015-May-26 09:32N 41°39' E 029°19'1 0.6
2015-May-26 08:33N 41°40' E 029°19'1 0.6
2015-May-26 06:32N 41°41' E 029°19'243 9.2
2015-May-25 04:07N 43°18' E 034°20'711.8
2015-May-25 03:33N 43°21' E 034°28'1411.8
2015-May-25 02:23N 43°27' E 034°45'3911.9
2015-May-24 23:05N 43°45' E 035°34'9112.0
2015-May-24 15:30N 44°26' E 037°27'1111.7
2015-May-24 14:33N 44°32' E 037°40'10 9.6
2015-May-24 13:33N 44°35' E 037°53'0 0.0
2015-May-24 12:33N 44°35' E 037°53'0 0.0
2015-May-24 11:33N 44°35' E 037°53'0 0.0
2015-May-24 10:33N 44°35' E 037°53'0 0.0
2015-May-24 09:33N 44°35' E 037°53'0 0.1
2015-May-24 08:33N 44°35' E 037°53'0 0.0
2015-May-24 07:33N 44°35' E 037°53'0 0.1
2015-May-24 06:33N 44°35' E 037°53'0 0.0
2015-May-24 05:33N 44°35' E 037°53'0 0.0
2015-May-24 04:33N 44°35' E 037°53'0 0.0
2015-May-24 03:34N 44°35' E 037°53'0 0.1
2015-May-24 02:33N 44°35' E 037°53'4 3.7
2015-May-24 01:33N 44°39' E 037°51'3 3.3
2015-May-24 00:33N 44°42' E 037°50'0 0.0
2015-May-23 23:34N 44°42' E 037°50'0 0.0
2015-May-23 22:34N 44°42' E 037°50'0 0.0
2015-May-23 21:33N 44°42' E 037°50'0 0.0
2015-May-23 20:33N 44°42' E 037°50'0 0.0
2015-May-23 19:32N 44°42' E 037°50'0 0.0
2015-May-23 18:34N 44°42' E 037°50'0 0.0
2015-May-23 17:33N 44°42' E 037°50'0 0.0
2015-May-23 16:33N 44°42' E 037°50'0 0.0
2015-May-23 15:33N 44°42' E 037°50'0 0.0
2015-May-23 14:34N 44°42' E 037°50'0 0.0
2015-May-23 13:33N 44°42' E 037°50'0 0.0
2015-May-23 12:33N 44°42' E 037°50'0 0.0
2015-May-23 11:34N 44°42' E 037°50'0 0.0
2015-May-23 10:33N 44°42' E 037°50'0 0.0
2015-May-23 09:33N 44°42' E 037°50'0 0.0
2015-May-23 08:33N 44°42' E 037°50'0 0.0
2015-May-23 07:34N 44°42' E 037°50'0 0.0
2015-May-23 06:33N 44°42' E 037°50'0 0.0
2015-May-23 05:34N 44°42' E 037°50'0 0.0
2015-May-23 04:34N 44°42' E 037°50'0 0.0
2015-May-23 03:34N 44°42' E 037°50'0 0.0
2015-May-23 02:33N 44°42' E 037°50'0 0.0
2015-May-23 01:34N 44°42' E 037°50'0 0.0
2015-May-23 00:33N 44°42' E 037°50'0 0.0
2015-May-22 23:34N 44°42' E 037°50'0 0.0
2015-May-22 22:34N 44°42' E 037°50'0 0.0
2015-May-22 21:33N 44°42' E 037°50'0 0.0
2015-May-22 20:28N 44°42' E 037°50'0 0.0
2015-May-22 19:33N 44°42' E 037°50'0 0.0
2015-May-22 18:34N 44°42' E 037°50'0 0.0
2015-May-22 17:33N 44°42' E 037°50'0 0.0
2015-May-22 16:34N 44°42' E 037°50'0 0.0
2015-May-22 15:34N 44°42' E 037°50'9 2.7
2015-May-22 12:11N 44°33' E 037°49'710.6
2015-May-22 11:33N 44°28' E 037°44'8 8.0
2015-May-22 10:33N 44°25' E 037°33'1 0.5
2015-May-22 09:33N 44°24' E 037°34'9 9.4
2015-May-22 08:33N 44°17' E 037°25'8 7.6
2015-May-22 07:34N 44°11' E 037°19'2 2.0
2015-May-22 06:33N 44°12' E 037°21'2 2.2
2015-May-22 05:33N 44°14' E 037°23'2 1.8
2015-May-22 04:34N 44°15' E 037°26'1 1.1
2015-May-22 03:33N 44°15' E 037°27'1 0.7
2015-May-22 02:19N 44°16' E 037°28'2 0.8
2015-May-21 23:17N 44°18' E 037°29'1 0.7
2015-May-21 22:10N 44°18' E 037°30'1 0.8
2015-May-21 21:27N 44°19' E 037°31'1 0.8
2015-May-21 20:32N 44°19' E 037°32'1 0.8
2015-May-21 19:29N 44°20' E 037°32'1 0.9
2015-May-21 18:18N 44°21' E 037°33'1 1.1
2015-May-21 17:29N 44°21' E 037°34'1 1.1
2015-May-21 16:32N 44°22' E 037°35'1 1.0
2015-May-21 15:33N 44°23' E 037°35'1 1.0
2015-May-21 14:33N 44°24' E 037°36'1 0.9
2015-May-21 13:33N 44°25' E 037°36'1 0.9
2015-May-21 12:33N 44°26' E 037°37'1 1.2
2015-May-21 11:33N 44°27' E 037°38'10 9.8
2015-May-21 10:33N 44°17' E 037°40'1 1.0
2015-May-21 09:33N 44°17' E 037°39'1 0.7
2015-May-21 08:33N 44°17' E 037°38'1 0.6
2015-May-21 07:33N 44°17' E 037°37'1 0.5
2015-May-21 06:33N 44°17' E 037°37'1 0.5
2015-May-21 05:33N 44°18' E 037°36'0 0.5
2015-May-21 04:34N 44°18' E 037°36'1 0.5
2015-May-21 03:33N 44°19' E 037°36'1 1.1
2015-May-21 02:33N 44°20' E 037°35'2 1.6
2015-May-21 01:29N 44°21' E 037°35'1 1.5
2015-May-21 00:31N 44°23' E 037°36'1 0.8
2015-May-20 23:30N 44°23' E 037°36'1 0.6
2015-May-20 22:33N 44°24' E 037°37'1 0.5
2015-May-20 21:33N 44°24' E 037°37'1 0.6
2015-May-20 20:33N 44°25' E 037°37'1 0.6
2015-May-20 19:33N 44°25' E 037°38'1 0.6
2015-May-20 18:33N 44°26' E 037°38'1 0.7
2015-May-20 17:31N 44°27' E 037°39'1 0.6
2015-May-20 16:33N 44°27' E 037°39'1 0.6
2015-May-20 15:33N 44°28' E 037°39'0 0.5
2015-May-20 14:33N 44°28' E 037°39'5 4.8
2015-May-20 13:34N 44°29' E 037°45'2 2.3
2015-May-20 12:34N 44°30' E 037°48'4 4.3
2015-May-20 11:34N 44°31' E 037°42'1212.1
2015-May-20 10:33N 44°30' E 037°25'1 1.1
2015-May-20 09:34N 44°29' E 037°26'2 1.8
2015-May-20 08:33N 44°28' E 037°28'2 2.1
2015-May-20 07:33N 44°28' E 037°31'2 1.7
2015-May-20 06:33N 44°28' E 037°33'1 1.1
2015-May-20 05:34N 44°28' E 037°35'1 0.5
2015-May-20 04:33N 44°28' E 037°36'0 0.5
2015-May-20 03:34N 44°28' E 037°36'1 0.7
2015-May-20 02:33N 44°28' E 037°37'1 0.7
2015-May-20 01:33N 44°28' E 037°38'0 0.4
2015-May-20 00:33N 44°28' E 037°39'0 0.4
2015-May-19 23:33N 44°29' E 037°39'0 0.4
2015-May-19 22:33N 44°29' E 037°40'0 0.4
2015-May-19 21:34N 44°29' E 037°40'1 0.5
2015-May-19 20:33N 44°29' E 037°41'0 0.5
2015-May-19 19:33N 44°28' E 037°41'1 0.5
2015-May-19 18:33N 44°28' E 037°42'1 0.5
2015-May-19 17:34N 44°28' E 037°43'1 0.5
2015-May-19 16:33N 44°28' E 037°44'0 0.4
2015-May-19 15:33N 44°28' E 037°44'0 0.5
2015-May-19 14:34N 44°29' E 037°45'0 0.5
2015-May-19 13:33N 44°29' E 037°45'0 0.5
2015-May-19 12:33N 44°29' E 037°45'0 0.4
2015-May-19 11:33N 44°30' E 037°45'0 0.4
2015-May-19 10:34N 44°30' E 037°46'0 0.5
2015-May-19 09:33N 44°31' E 037°46'0 0.5
2015-May-19 08:33N 44°31' E 037°45'0 0.4
2015-May-19 07:33N 44°31' E 037°45'10 9.8
2015-May-19 06:34N 44°26' E 037°33'1110.8
2015-May-19 05:34N 44°21' E 037°20'1010.3
2015-May-19 04:33N 44°16' E 037°07'1010.4
2015-May-19 03:33N 44°11' E 036°55'1010.1
2015-May-19 02:32N 44°07' E 036°42'1010.1
2015-May-19 01:33N 44°03' E 036°29'1010.4
2015-May-19 00:33N 43°59' E 036°16'1110.7
2015-May-18 23:34N 43°55' E 036°02'1110.7
2015-May-18 22:33N 43°50' E 035°48'1110.7
2015-May-18 21:33N 43°46' E 035°35'1110.8
2015-May-18 20:33N 43°42' E 035°21'1110.9
2015-May-18 19:33N 43°37' E 035°07'1110.7
2015-May-18 18:33N 43°33' E 034°54'1110.6
2015-May-18 17:33N 43°29' E 034°40'1010.3
2015-May-18 16:33N 43°25' E 034°27'1010.2
2015-May-18 15:33N 43°21' E 034°14'1010.3
2015-May-18 14:33N 43°17' E 034°01'1010.5
2015-May-18 13:34N 43°12' E 033°48'1110.9
2015-May-18 12:31N 43°08' E 033°34'  

Dump ship's entire track history